sensor_id;sensor_type;location;lat;lon;timestamp;P1;durP1;ratioP1;P2;durP2;ratioP2
13327;SDS011;6733;51.044;3.746;2023-07-28T00:02:22;4.27;;;3.87;;
13327;SDS011;6733;51.044;3.746;2023-07-28T00:04:49;4.30;;;4.00;;
13327;SDS011;6733;51.044;3.746;2023-07-28T00:07:15;4.60;;;4.20;;
13327;SDS011;6733;51.044;3.746;2023-07-28T00:09:41;5.53;;;4.73;;
13327;SDS011;6733;51.044;3.746;2023-07-28T00:12:07;5.33;;;4.20;;
13327;SDS011;6733;51.044;3.746;2023-07-28T00:14:33;5.83;;;4.60;;
13327;SDS011;6733;51.044;3.746;2023-07-28T00:16:59;4.60;;;4.20;;
13327;SDS011;6733;51.044;3.746;2023-07-28T00:19:26;4.50;;;4.20;;
13327;SDS011;6733;51.044;3.746;2023-07-28T00:21:52;5.27;;;4.63;;
13327;SDS011;6733;51.044;3.746;2023-07-28T00:24:18;5.23;;;4.70;;
13327;SDS011;6733;51.044;3.746;2023-07-28T00:26:45;5.53;;;5.03;;
13327;SDS011;6733;51.044;3.746;2023-07-28T00:29:11;5.20;;;4.70;;
13327;SDS011;6733;51.044;3.746;2023-07-28T00:31:37;7.03;;;5.30;;
13327;SDS011;6733;51.044;3.746;2023-07-28T00:34:03;5.37;;;4.97;;
13327;SDS011;6733;51.044;3.746;2023-07-28T00:36:30;6.67;;;4.90;;
13327;SDS011;6733;51.044;3.746;2023-07-28T00:38:56;5.33;;;4.93;;
13327;SDS011;6733;51.044;3.746;2023-07-28T00:41:23;5.40;;;4.90;;
13327;SDS011;6733;51.044;3.746;2023-07-28T00:43:49;5.47;;;4.90;;
13327;SDS011;6733;51.044;3.746;2023-07-28T00:46:15;6.33;;;5.20;;
13327;SDS011;6733;51.044;3.746;2023-07-28T00:48:42;5.77;;;5.13;;
13327;SDS011;6733;51.044;3.746;2023-07-28T00:51:09;6.10;;;5.50;;
13327;SDS011;6733;51.044;3.746;2023-07-28T00:53:35;6.03;;;5.43;;
13327;SDS011;6733;51.044;3.746;2023-07-28T00:56:02;5.50;;;4.97;;
13327;SDS011;6733;51.044;3.746;2023-07-28T00:58:29;6.17;;;5.47;;
13327;SDS011;6733;51.044;3.746;2023-07-28T01:00:56;5.53;;;5.03;;
13327;SDS011;6733;51.044;3.746;2023-07-28T01:03:22;6.13;;;5.63;;
13327;SDS011;6733;51.044;3.746;2023-07-28T01:05:58;6.30;;;5.80;;
13327;SDS011;6733;51.044;3.746;2023-07-28T01:08:57;6.07;;;5.57;;
13327;SDS011;6733;51.044;3.746;2023-07-28T01:11:29;5.20;;;4.80;;
13327;SDS011;6733;51.044;3.746;2023-07-28T01:13:56;5.73;;;5.13;;
13327;SDS011;6733;51.044;3.746;2023-07-28T01:16:22;5.83;;;5.30;;
13327;SDS011;6733;51.044;3.746;2023-07-28T01:18:49;6.50;;;5.03;;
13327;SDS011;6733;51.044;3.746;2023-07-28T01:21:17;6.57;;;5.40;;
13327;SDS011;6733;51.044;3.746;2023-07-28T01:23:51;5.63;;;4.83;;
13327;SDS011;6733;51.044;3.746;2023-07-28T01:29:01;6.00;;;5.50;;
13327;SDS011;6733;51.044;3.746;2023-07-28T01:31:31;5.70;;;5.10;;
13327;SDS011;6733;51.044;3.746;2023-07-28T01:33:57;6.37;;;4.60;;
13327;SDS011;6733;51.044;3.746;2023-07-28T01:36:23;6.33;;;4.60;;
13327;SDS011;6733;51.044;3.746;2023-07-28T01:38:49;4.53;;;4.13;;
13327;SDS011;6733;51.044;3.746;2023-07-28T01:41:16;6.97;;;5.10;;
13327;SDS011;6733;51.044;3.746;2023-07-28T01:43:42;4.87;;;4.47;;
13327;SDS011;6733;51.044;3.746;2023-07-28T01:46:08;4.40;;;4.00;;
13327;SDS011;6733;51.044;3.746;2023-07-28T01:48:34;4.90;;;4.40;;
13327;SDS011;6733;51.044;3.746;2023-07-28T01:51:01;4.90;;;4.40;;
13327;SDS011;6733;51.044;3.746;2023-07-28T01:53:27;4.90;;;4.50;;
13327;SDS011;6733;51.044;3.746;2023-07-28T01:55:53;5.27;;;4.70;;
13327;SDS011;6733;51.044;3.746;2023-07-28T01:58:19;5.37;;;4.87;;
13327;SDS011;6733;51.044;3.746;2023-07-28T02:00:45;5.57;;;4.37;;
13327;SDS011;6733;51.044;3.746;2023-07-28T02:03:14;7.07;;;5.50;;
13327;SDS011;6733;51.044;3.746;2023-07-28T02:05:40;6.13;;;5.30;;
13327;SDS011;6733;51.044;3.746;2023-07-28T02:08:07;5.30;;;4.37;;
13327;SDS011;6733;51.044;3.746;2023-07-28T02:10:33;6.77;;;4.97;;
13327;SDS011;6733;51.044;3.746;2023-07-28T02:12:59;5.17;;;4.60;;
13327;SDS011;6733;51.044;3.746;2023-07-28T02:15:25;4.40;;;4.00;;
13327;SDS011;6733;51.044;3.746;2023-07-28T02:17:52;7.33;;;3.90;;
13327;SDS011;6733;51.044;3.746;2023-07-28T02:20:18;4.80;;;3.90;;
13327;SDS011;6733;51.044;3.746;2023-07-28T02:22:44;4.07;;;3.67;;
13327;SDS011;6733;51.044;3.746;2023-07-28T02:25:11;3.43;;;3.13;;
13327;SDS011;6733;51.044;3.746;2023-07-28T02:27:37;4.80;;;3.77;;
13327;SDS011;6733;51.044;3.746;2023-07-28T02:30:04;5.23;;;3.87;;
13327;SDS011;6733;51.044;3.746;2023-07-28T02:32:31;4.10;;;3.57;;
13327;SDS011;6733;51.044;3.746;2023-07-28T02:34:58;5.23;;;3.53;;
13327;SDS011;6733;51.044;3.746;2023-07-28T02:37:48;4.17;;;3.10;;
13327;SDS011;6733;51.044;3.746;2023-07-28T02:40:39;3.57;;;3.17;;
13327;SDS011;6733;51.044;3.746;2023-07-28T02:43:30;7.43;;;3.57;;
13327;SDS011;6733;51.044;3.746;2023-07-28T02:46:21;4.30;;;3.37;;
13327;SDS011;6733;51.044;3.746;2023-07-28T02:49:12;4.50;;;2.80;;
13327;SDS011;6733;51.044;3.746;2023-07-28T02:52:03;6.00;;;2.90;;
13327;SDS011;6733;51.044;3.746;2023-07-28T02:54:55;4.43;;;2.97;;
13327;SDS011;6733;51.044;3.746;2023-07-28T02:57:45;5.27;;;3.40;;
13327;SDS011;6733;51.044;3.746;2023-07-28T03:00:12;3.97;;;3.10;;
13327;SDS011;6733;51.044;3.746;2023-07-28T03:02:38;2.93;;;2.73;;
13327;SDS011;6733;51.044;3.746;2023-07-28T03:05:07;3.03;;;2.80;;
13327;SDS011;6733;51.044;3.746;2023-07-28T03:07:33;3.73;;;2.87;;
13327;SDS011;6733;51.044;3.746;2023-07-28T03:09:59;4.03;;;2.80;;
13327;SDS011;6733;51.044;3.746;2023-07-28T03:12:25;4.00;;;2.70;;
13327;SDS011;6733;51.044;3.746;2023-07-28T03:14:54;6.50;;;2.97;;
13327;SDS011;6733;51.044;3.746;2023-07-28T03:17:21;3.27;;;2.97;;
13327;SDS011;6733;51.044;3.746;2023-07-28T03:19:47;3.97;;;2.60;;
13327;SDS011;6733;51.044;3.746;2023-07-28T03:22:13;2.67;;;2.40;;
13327;SDS011;6733;51.044;3.746;2023-07-28T03:24:39;4.37;;;2.60;;
13327;SDS011;6733;51.044;3.746;2023-07-28T03:27:06;3.03;;;2.60;;
13327;SDS011;6733;51.044;3.746;2023-07-28T03:29:33;2.80;;;2.57;;
13327;SDS011;6733;51.044;3.746;2023-07-28T03:32:00;3.93;;;2.40;;
13327;SDS011;6733;51.044;3.746;2023-07-28T03:34:26;2.60;;;2.33;;
13327;SDS011;6733;51.044;3.746;2023-07-28T03:36:52;2.37;;;2.17;;
13327;SDS011;6733;51.044;3.746;2023-07-28T03:39:18;2.50;;;2.30;;
13327;SDS011;6733;51.044;3.746;2023-07-28T03:41:45;3.77;;;2.20;;
13327;SDS011;6733;51.044;3.746;2023-07-28T03:44:11;2.47;;;2.27;;
13327;SDS011;6733;51.044;3.746;2023-07-28T03:46:37;5.13;;;2.30;;
13327;SDS011;6733;51.044;3.746;2023-07-28T03:49:03;2.40;;;2.20;;
13327;SDS011;6733;51.044;3.746;2023-07-28T03:51:29;3.30;;;2.17;;
13327;SDS011;6733;51.044;3.746;2023-07-28T03:53:56;2.40;;;2.20;;
13327;SDS011;6733;51.044;3.746;2023-07-28T03:56:22;2.10;;;1.90;;
13327;SDS011;6733;51.044;3.746;2023-07-28T03:58:48;2.97;;;2.00;;
13327;SDS011;6733;51.044;3.746;2023-07-28T04:01:14;2.00;;;1.90;;
13327;SDS011;6733;51.044;3.746;2023-07-28T04:03:40;2.70;;;2.10;;
13327;SDS011;6733;51.044;3.746;2023-07-28T04:06:12;2.23;;;2.00;;
13327;SDS011;6733;51.044;3.746;2023-07-28T04:08:39;3.37;;;2.30;;
13327;SDS011;6733;51.044;3.746;2023-07-28T04:11:05;2.80;;;2.47;;
13327;SDS011;6733;51.044;3.746;2023-07-28T04:13:32;2.73;;;2.20;;
13327;SDS011;6733;51.044;3.746;2023-07-28T04:15:59;2.87;;;2.57;;
13327;SDS011;6733;51.044;3.746;2023-07-28T04:18:26;2.90;;;2.60;;
13327;SDS011;6733;51.044;3.746;2023-07-28T04:20:52;2.93;;;2.70;;
13327;SDS011;6733;51.044;3.746;2023-07-28T04:23:18;3.53;;;3.23;;
13327;SDS011;6733;51.044;3.746;2023-07-28T04:25:45;3.10;;;2.90;;
13327;SDS011;6733;51.044;3.746;2023-07-28T04:28:11;4.43;;;3.00;;
13327;SDS011;6733;51.044;3.746;2023-07-28T04:30:37;4.70;;;3.43;;
13327;SDS011;6733;51.044;3.746;2023-07-28T04:33:03;4.23;;;3.53;;
13327;SDS011;6733;51.044;3.746;2023-07-28T04:35:32;3.53;;;3.23;;
13327;SDS011;6733;51.044;3.746;2023-07-28T04:37:58;3.40;;;3.10;;
13327;SDS011;6733;51.044;3.746;2023-07-28T04:40:24;3.50;;;3.20;;
13327;SDS011;6733;51.044;3.746;2023-07-28T04:42:50;4.03;;;3.73;;
13327;SDS011;6733;51.044;3.746;2023-07-28T04:45:19;3.97;;;3.67;;
13327;SDS011;6733;51.044;3.746;2023-07-28T04:47:45;4.13;;;3.73;;
13327;SDS011;6733;51.044;3.746;2023-07-28T04:50:11;3.70;;;3.40;;
13327;SDS011;6733;51.044;3.746;2023-07-28T04:52:37;4.03;;;3.70;;
13327;SDS011;6733;51.044;3.746;2023-07-28T04:55:03;3.83;;;3.40;;
13327;SDS011;6733;51.044;3.746;2023-07-28T04:57:30;4.40;;;3.73;;
13327;SDS011;6733;51.044;3.746;2023-07-28T04:59:56;3.90;;;3.50;;
13327;SDS011;6733;51.044;3.746;2023-07-28T05:02:22;4.13;;;3.60;;
13327;SDS011;6733;51.044;3.746;2023-07-28T05:04:48;4.17;;;3.80;;
13327;SDS011;6733;51.044;3.746;2023-07-28T05:07:15;10.23;;;3.53;;
13327;SDS011;6733;51.044;3.746;2023-07-28T05:09:41;4.53;;;3.60;;
13327;SDS011;6733;51.044;3.746;2023-07-28T05:12:07;3.53;;;3.23;;
13327;SDS011;6733;51.044;3.746;2023-07-28T05:14:34;4.67;;;3.53;;
13327;SDS011;6733;51.044;3.746;2023-07-28T05:17:00;5.40;;;4.40;;
13327;SDS011;6733;51.044;3.746;2023-07-28T05:19:26;4.40;;;4.00;;
13327;SDS011;6733;51.044;3.746;2023-07-28T05:21:52;4.20;;;3.80;;
13327;SDS011;6733;51.044;3.746;2023-07-28T05:24:18;4.63;;;4.10;;
13327;SDS011;6733;51.044;3.746;2023-07-28T05:26:45;4.37;;;4.07;;
13327;SDS011;6733;51.044;3.746;2023-07-28T05:29:11;4.50;;;4.10;;
13327;SDS011;6733;51.044;3.746;2023-07-28T05:31:37;5.67;;;4.50;;
13327;SDS011;6733;51.044;3.746;2023-07-28T05:34:03;5.43;;;4.23;;
13327;SDS011;6733;51.044;3.746;2023-07-28T05:36:29;4.67;;;4.17;;
13327;SDS011;6733;51.044;3.746;2023-07-28T05:38:57;4.83;;;4.43;;
13327;SDS011;6733;51.044;3.746;2023-07-28T05:41:23;4.53;;;4.13;;
13327;SDS011;6733;51.044;3.746;2023-07-28T05:43:49;5.00;;;4.50;;
13327;SDS011;6733;51.044;3.746;2023-07-28T05:46:16;5.07;;;4.13;;
13327;SDS011;6733;51.044;3.746;2023-07-28T05:48:42;4.20;;;3.80;;
13327;SDS011;6733;51.044;3.746;2023-07-28T05:51:08;3.73;;;3.43;;
13327;SDS011;6733;51.044;3.746;2023-07-28T05:53:34;3.87;;;3.57;;
13327;SDS011;6733;51.044;3.746;2023-07-28T05:56:00;3.60;;;3.30;;
13327;SDS011;6733;51.044;3.746;2023-07-28T05:58:27;3.73;;;3.37;;
13327;SDS011;6733;51.044;3.746;2023-07-28T06:00:53;3.40;;;3.10;;
13327;SDS011;6733;51.044;3.746;2023-07-28T06:03:19;3.23;;;2.93;;
13327;SDS011;6733;51.044;3.746;2023-07-28T06:05:45;2.80;;;2.60;;
13327;SDS011;6733;51.044;3.746;2023-07-28T06:08:11;2.83;;;2.53;;
13327;SDS011;6733;51.044;3.746;2023-07-28T06:10:37;3.80;;;2.83;;
13327;SDS011;6733;51.044;3.746;2023-07-28T06:13:03;3.43;;;2.70;;
13327;SDS011;6733;51.044;3.746;2023-07-28T06:15:30;3.00;;;2.40;;
13327;SDS011;6733;51.044;3.746;2023-07-28T06:17:56;3.30;;;2.97;;
13327;SDS011;6733;51.044;3.746;2023-07-28T06:20:22;3.10;;;2.80;;
13327;SDS011;6733;51.044;3.746;2023-07-28T06:22:48;4.83;;;2.60;;
13327;SDS011;6733;51.044;3.746;2023-07-28T06:25:15;3.30;;;2.73;;
13327;SDS011;6733;51.044;3.746;2023-07-28T06:27:41;4.30;;;3.00;;
13327;SDS011;6733;51.044;3.746;2023-07-28T06:30:08;3.57;;;2.77;;
13327;SDS011;6733;51.044;3.746;2023-07-28T06:32:35;6.77;;;3.40;;
13327;SDS011;6733;51.044;3.746;2023-07-28T06:35:01;3.47;;;3.07;;
13327;SDS011;6733;51.044;3.746;2023-07-28T06:37:28;3.80;;;3.40;;
13327;SDS011;6733;51.044;3.746;2023-07-28T06:39:54;3.83;;;3.00;;
13327;SDS011;6733;51.044;3.746;2023-07-28T06:42:21;6.10;;;3.47;;
13327;SDS011;6733;51.044;3.746;2023-07-28T06:44:50;4.23;;;3.10;;
13327;SDS011;6733;51.044;3.746;2023-07-28T06:47:17;3.63;;;3.33;;
13327;SDS011;6733;51.044;3.746;2023-07-28T06:49:44;4.33;;;3.33;;
13327;SDS011;6733;51.044;3.746;2023-07-28T06:52:10;3.77;;;3.27;;
13327;SDS011;6733;51.044;3.746;2023-07-28T06:54:36;4.53;;;3.10;;
13327;SDS011;6733;51.044;3.746;2023-07-28T06:57:03;3.60;;;3.20;;
13327;SDS011;6733;51.044;3.746;2023-07-28T06:59:30;4.13;;;3.20;;
13327;SDS011;6733;51.044;3.746;2023-07-28T07:01:56;5.67;;;3.20;;
13327;SDS011;6733;51.044;3.746;2023-07-28T07:04:22;5.30;;;3.43;;
13327;SDS011;6733;51.044;3.746;2023-07-28T07:06:48;4.87;;;3.30;;
13327;SDS011;6733;51.044;3.746;2023-07-28T07:09:14;3.50;;;3.20;;
13327;SDS011;6733;51.044;3.746;2023-07-28T07:11:40;5.30;;;3.20;;
13327;SDS011;6733;51.044;3.746;2023-07-28T07:14:07;3.80;;;3.17;;
13327;SDS011;6733;51.044;3.746;2023-07-28T07:16:33;3.60;;;2.87;;
13327;SDS011;6733;51.044;3.746;2023-07-28T07:19:00;5.20;;;3.10;;
13327;SDS011;6733;51.044;3.746;2023-07-28T07:21:27;4.43;;;3.00;;
13327;SDS011;6733;51.044;3.746;2023-07-28T07:23:53;5.00;;;2.97;;
13327;SDS011;6733;51.044;3.746;2023-07-28T07:26:19;5.90;;;3.30;;
13327;SDS011;6733;51.044;3.746;2023-07-28T07:28:45;3.77;;;3.00;;
13327;SDS011;6733;51.044;3.746;2023-07-28T07:31:15;5.33;;;3.40;;
13327;SDS011;6733;51.044;3.746;2023-07-28T07:33:41;4.77;;;3.13;;
13327;SDS011;6733;51.044;3.746;2023-07-28T07:36:14;4.57;;;3.03;;
13327;SDS011;6733;51.044;3.746;2023-07-28T07:38:41;4.97;;;3.53;;
13327;SDS011;6733;51.044;3.746;2023-07-28T07:41:08;4.03;;;3.23;;
13327;SDS011;6733;51.044;3.746;2023-07-28T07:43:36;4.57;;;3.10;;
13327;SDS011;6733;51.044;3.746;2023-07-28T07:46:02;4.43;;;3.90;;
13327;SDS011;6733;51.044;3.746;2023-07-28T07:48:28;7.03;;;3.80;;
13327;SDS011;6733;51.044;3.746;2023-07-28T07:50:55;4.30;;;3.23;;
13327;SDS011;6733;51.044;3.746;2023-07-28T07:53:22;3.50;;;3.20;;
13327;SDS011;6733;51.044;3.746;2023-07-28T07:55:48;6.30;;;3.50;;
13327;SDS011;6733;51.044;3.746;2023-07-28T07:58:15;6.40;;;3.17;;
13327;SDS011;6733;51.044;3.746;2023-07-28T08:00:41;5.60;;;3.10;;
13327;SDS011;6733;51.044;3.746;2023-07-28T08:03:09;3.90;;;3.10;;
13327;SDS011;6733;51.044;3.746;2023-07-28T08:05:35;4.63;;;3.17;;
13327;SDS011;6733;51.044;3.746;2023-07-28T08:08:02;4.07;;;3.00;;
13327;SDS011;6733;51.044;3.746;2023-07-28T08:10:28;4.77;;;2.73;;
13327;SDS011;6733;51.044;3.746;2023-07-28T08:12:55;7.40;;;3.10;;
13327;SDS011;6733;51.044;3.746;2023-07-28T08:15:21;4.50;;;2.87;;
13327;SDS011;6733;51.044;3.746;2023-07-28T08:17:47;5.73;;;3.27;;
13327;SDS011;6733;51.044;3.746;2023-07-28T08:20:13;3.47;;;3.17;;
13327;SDS011;6733;51.044;3.746;2023-07-28T08:22:40;4.70;;;3.47;;
13327;SDS011;6733;51.044;3.746;2023-07-28T08:25:07;5.57;;;3.27;;
13327;SDS011;6733;51.044;3.746;2023-07-28T08:27:33;4.87;;;3.87;;
13327;SDS011;6733;51.044;3.746;2023-07-28T08:30:00;3.30;;;3.00;;
13327;SDS011;6733;51.044;3.746;2023-07-28T08:32:26;5.10;;;3.63;;
13327;SDS011;6733;51.044;3.746;2023-07-28T08:34:53;3.83;;;3.37;;
13327;SDS011;6733;51.044;3.746;2023-07-28T08:37:20;4.30;;;3.57;;
13327;SDS011;6733;51.044;3.746;2023-07-28T08:39:46;3.70;;;3.40;;
13327;SDS011;6733;51.044;3.746;2023-07-28T08:42:14;4.57;;;3.37;;
13327;SDS011;6733;51.044;3.746;2023-07-28T08:44:41;3.50;;;3.20;;
13327;SDS011;6733;51.044;3.746;2023-07-28T08:47:07;5.80;;;3.80;;
13327;SDS011;6733;51.044;3.746;2023-07-28T08:49:34;4.93;;;3.80;;
13327;SDS011;6733;51.044;3.746;2023-07-28T08:52:02;4.67;;;3.20;;
13327;SDS011;6733;51.044;3.746;2023-07-28T08:54:29;6.40;;;3.07;;
13327;SDS011;6733;51.044;3.746;2023-07-28T08:56:59;3.50;;;3.17;;
13327;SDS011;6733;51.044;3.746;2023-07-28T08:59:26;3.83;;;3.40;;
13327;SDS011;6733;51.044;3.746;2023-07-28T09:01:54;5.13;;;3.00;;
13327;SDS011;6733;51.044;3.746;2023-07-28T09:04:21;3.10;;;2.80;;
13327;SDS011;6733;51.044;3.746;2023-07-28T09:06:48;3.80;;;3.00;;
13327;SDS011;6733;51.044;3.746;2023-07-28T09:09:16;4.77;;;2.40;;
13327;SDS011;6733;51.044;3.746;2023-07-28T09:11:53;4.13;;;2.73;;
13327;SDS011;6733;51.044;3.746;2023-07-28T09:14:20;2.77;;;2.37;;
13327;SDS011;6733;51.044;3.746;2023-07-28T09:16:49;3.17;;;2.77;;
13327;SDS011;6733;51.044;3.746;2023-07-28T09:19:15;4.37;;;2.40;;
13327;SDS011;6733;51.044;3.746;2023-07-28T09:21:42;3.00;;;2.63;;
13327;SDS011;6733;51.044;3.746;2023-07-28T09:24:11;3.57;;;2.70;;
13327;SDS011;6733;51.044;3.746;2023-07-28T09:26:45;3.40;;;2.33;;
13327;SDS011;6733;51.044;3.746;2023-07-28T09:29:17;2.70;;;2.40;;
13327;SDS011;6733;51.044;3.746;2023-07-28T09:31:47;4.80;;;2.53;;
13327;SDS011;6733;51.044;3.746;2023-07-28T09:34:25;3.80;;;2.60;;
13327;SDS011;6733;51.044;3.746;2023-07-28T09:36:54;3.43;;;2.27;;
13327;SDS011;6733;51.044;3.746;2023-07-28T09:39:22;3.77;;;2.40;;
13327;SDS011;6733;51.044;3.746;2023-07-28T09:41:48;3.47;;;2.25;;
13327;SDS011;6733;51.044;3.746;2023-07-28T09:44:15;2.90;;;2.43;;
13327;SDS011;6733;51.044;3.746;2023-07-28T09:46:51;4.73;;;3.37;;
13327;SDS011;6733;51.044;3.746;2023-07-28T09:49:20;3.57;;;3.13;;
13327;SDS011;6733;51.044;3.746;2023-07-28T09:51:53;3.70;;;2.73;;
13327;SDS011;6733;51.044;3.746;2023-07-28T09:54:24;3.47;;;2.50;;
13327;SDS011;6733;51.044;3.746;2023-07-28T09:56:56;3.80;;;2.57;;
13327;SDS011;6733;51.044;3.746;2023-07-28T09:59:28;2.83;;;2.20;;
13327;SDS011;6733;51.044;3.746;2023-07-28T10:02:00;3.00;;;2.33;;
13327;SDS011;6733;51.044;3.746;2023-07-28T10:04:26;3.33;;;2.80;;
13327;SDS011;6733;51.044;3.746;2023-07-28T10:06:53;3.00;;;2.80;;
13327;SDS011;6733;51.044;3.746;2023-07-28T10:09:25;2.80;;;2.40;;
13327;SDS011;6733;51.044;3.746;2023-07-28T10:11:54;3.57;;;2.73;;
13327;SDS011;6733;51.044;3.746;2023-07-28T10:14:36;2.87;;;2.67;;
13327;SDS011;6733;51.044;3.746;2023-07-28T10:17:03;3.30;;;2.33;;
13327;SDS011;6733;51.044;3.746;2023-07-28T10:19:35;3.10;;;2.20;;
13327;SDS011;6733;51.044;3.746;2023-07-28T10:22:02;4.30;;;2.17;;
13327;SDS011;6733;51.044;3.746;2023-07-28T10:24:52;2.70;;;2.07;;
13327;SDS011;6733;51.044;3.746;2023-07-28T10:30:09;5.00;;;2.35;;
13327;SDS011;6733;51.044;3.746;2023-07-28T10:32:40;2.58;;;1.60;;
13327;SDS011;6733;51.044;3.746;2023-07-28T10:37:35;2.42;;;1.70;;
13327;SDS011;6733;51.044;3.746;2023-07-28T10:43:02;1.90;;;1.55;;
13327;SDS011;6733;51.044;3.746;2023-07-28T10:45:31;1.58;;;1.48;;
13327;SDS011;6733;51.044;3.746;2023-07-28T10:47:58;3.78;;;1.42;;
13327;SDS011;6733;51.044;3.746;2023-07-28T10:50:26;4.95;;;1.55;;
13327;SDS011;6733;51.044;3.746;2023-07-28T10:52:54;1.67;;;1.40;;
13327;SDS011;6733;51.044;3.746;2023-07-28T10:55:22;1.38;;;1.27;;
13327;SDS011;6733;51.044;3.746;2023-07-28T10:57:50;1.90;;;1.40;;
13327;SDS011;6733;51.044;3.746;2023-07-28T11:00:18;1.30;;;1.20;;
13327;SDS011;6733;51.044;3.746;2023-07-28T11:02:47;1.33;;;1.23;;
13327;SDS011;6733;51.044;3.746;2023-07-28T11:05:27;2.05;;;1.58;;
13327;SDS011;6733;51.044;3.746;2023-07-28T11:07:58;2.38;;;1.63;;
13327;SDS011;6733;51.044;3.746;2023-07-28T11:10:29;2.67;;;1.73;;
13327;SDS011;6733;51.044;3.746;2023-07-28T11:13:00;2.30;;;1.65;;
13327;SDS011;6733;51.044;3.746;2023-07-28T11:15:28;2.38;;;1.73;;
13327;SDS011;6733;51.044;3.746;2023-07-28T11:17:54;1.83;;;1.48;;
13327;SDS011;6733;51.044;3.746;2023-07-28T11:20:24;3.17;;;1.50;;
13327;SDS011;6733;51.044;3.746;2023-07-28T11:25:21;2.85;;;1.80;;
13327;SDS011;6733;51.044;3.746;2023-07-28T11:27:48;1.60;;;1.50;;
13327;SDS011;6733;51.044;3.746;2023-07-28T11:30:15;2.53;;;1.80;;
13327;SDS011;6733;51.044;3.746;2023-07-28T11:32:43;2.80;;;1.83;;
13327;SDS011;6733;51.044;3.746;2023-07-28T11:35:12;1.90;;;1.80;;
13327;SDS011;6733;51.044;3.746;2023-07-28T11:37:39;3.67;;;1.90;;
13327;SDS011;6733;51.044;3.746;2023-07-28T11:40:08;1.90;;;1.70;;
13327;SDS011;6733;51.044;3.746;2023-07-28T11:42:38;2.07;;;1.67;;
13327;SDS011;6733;51.044;3.746;2023-07-28T11:45:12;3.00;;;1.70;;
13327;SDS011;6733;51.044;3.746;2023-07-28T11:47:51;3.17;;;1.60;;
13327;SDS011;6733;51.044;3.746;2023-07-28T11:50:41;2.33;;;1.70;;
13327;SDS011;6733;51.044;3.746;2023-07-28T11:53:08;3.50;;;1.80;;
13327;SDS011;6733;51.044;3.746;2023-07-28T11:55:35;1.65;;;1.55;;
13327;SDS011;6733;51.044;3.746;2023-07-28T11:58:02;3.58;;;1.80;;
13327;SDS011;6733;51.044;3.746;2023-07-28T12:00:32;2.58;;;1.88;;
13327;SDS011;6733;51.044;3.746;2023-07-28T12:03:02;3.03;;;1.60;;
13327;SDS011;6733;51.044;3.746;2023-07-28T12:05:32;3.42;;;2.08;;
13327;SDS011;6733;51.044;3.746;2023-07-28T12:08:01;2.50;;;1.90;;
13327;SDS011;6733;51.044;3.746;2023-07-28T12:10:31;3.83;;;1.73;;
13327;SDS011;6733;51.044;3.746;2023-07-28T12:12:57;1.47;;;1.37;;
13327;SDS011;6733;51.044;3.746;2023-07-28T12:15:30;1.87;;;1.57;;
13327;SDS011;6733;51.044;3.746;2023-07-28T12:20:34;3.57;;;1.40;;
13327;SDS011;6733;51.044;3.746;2023-07-28T12:23:05;1.90;;;1.60;;
13327;SDS011;6733;51.044;3.746;2023-07-28T12:25:32;3.03;;;1.60;;
13327;SDS011;6733;51.044;3.746;2023-07-28T12:27:59;2.40;;;1.30;;
13327;SDS011;6733;51.044;3.746;2023-07-28T12:30:28;1.45;;;1.35;;
13327;SDS011;6733;51.044;3.746;2023-07-28T12:32:54;2.90;;;1.60;;
13327;SDS011;6733;51.044;3.746;2023-07-28T12:35:21;2.20;;;1.30;;
13327;SDS011;6733;51.044;3.746;2023-07-28T12:37:52;1.40;;;1.30;;
13327;SDS011;6733;51.044;3.746;2023-07-28T12:40:18;1.70;;;1.50;;
13327;SDS011;6733;51.044;3.746;2023-07-28T12:42:45;2.20;;;1.40;;
13327;SDS011;6733;51.044;3.746;2023-07-28T12:45:13;2.63;;;1.45;;
13327;SDS011;6733;51.044;3.746;2023-07-28T12:47:42;1.98;;;1.50;;
13327;SDS011;6733;51.044;3.746;2023-07-28T12:50:09;1.60;;;1.40;;
13327;SDS011;6733;51.044;3.746;2023-07-28T12:52:36;1.60;;;1.50;;
13327;SDS011;6733;51.044;3.746;2023-07-28T12:55:02;2.45;;;1.60;;
13327;SDS011;6733;51.044;3.746;2023-07-28T12:57:29;2.38;;;1.73;;
13327;SDS011;6733;51.044;3.746;2023-07-28T12:59:55;2.40;;;1.65;;
13327;SDS011;6733;51.044;3.746;2023-07-28T13:02:21;4.70;;;1.80;;
13327;SDS011;6733;51.044;3.746;2023-07-28T13:04:47;2.47;;;1.60;;
13327;SDS011;6733;51.044;3.746;2023-07-28T13:07:13;2.85;;;1.92;;
13327;SDS011;6733;51.044;3.746;2023-07-28T13:09:40;2.75;;;1.80;;
13327;SDS011;6733;51.044;3.746;2023-07-28T13:12:07;2.65;;;1.67;;
13327;SDS011;6733;51.044;3.746;2023-07-28T13:14:34;2.17;;;1.70;;
13327;SDS011;6733;51.044;3.746;2023-07-28T13:17:00;1.92;;;1.55;;
13327;SDS011;6733;51.044;3.746;2023-07-28T13:19:26;2.92;;;2.00;;
13327;SDS011;6733;51.044;3.746;2023-07-28T13:21:52;2.08;;;1.60;;
13327;SDS011;6733;51.044;3.746;2023-07-28T13:24:18;3.17;;;1.92;;
13327;SDS011;6733;51.044;3.746;2023-07-28T13:26:44;2.35;;;1.70;;
13327;SDS011;6733;51.044;3.746;2023-07-28T13:29:11;1.88;;;1.70;;
13327;SDS011;6733;51.044;3.746;2023-07-28T13:31:37;1.92;;;1.60;;
13327;SDS011;6733;51.044;3.746;2023-07-28T13:34:03;1.70;;;1.60;;
13327;SDS011;6733;51.044;3.746;2023-07-28T13:36:29;1.80;;;1.63;;
13327;SDS011;6733;51.044;3.746;2023-07-28T13:38:56;1.77;;;1.67;;
13327;SDS011;6733;51.044;3.746;2023-07-28T13:41:22;1.77;;;1.65;;
13327;SDS011;6733;51.044;3.746;2023-07-28T13:43:48;2.38;;;1.70;;
13327;SDS011;6733;51.044;3.746;2023-07-28T13:46:14;2.05;;;1.80;;
13327;SDS011;6733;51.044;3.746;2023-07-28T13:48:40;2.55;;;1.70;;
13327;SDS011;6733;51.044;3.746;2023-07-28T13:51:06;2.42;;;1.70;;
13327;SDS011;6733;51.044;3.746;2023-07-28T13:53:32;2.25;;;1.80;;
13327;SDS011;6733;51.044;3.746;2023-07-28T13:55:58;2.30;;;1.73;;
13327;SDS011;6733;51.044;3.746;2023-07-28T13:58:25;1.77;;;1.50;;
13327;SDS011;6733;51.044;3.746;2023-07-28T14:00:51;2.72;;;1.60;;
13327;SDS011;6733;51.044;3.746;2023-07-28T14:03:17;2.22;;;1.70;;
13327;SDS011;6733;51.044;3.746;2023-07-28T14:05:44;4.43;;;1.70;;
13327;SDS011;6733;51.044;3.746;2023-07-28T14:08:10;1.50;;;1.40;;
13327;SDS011;6733;51.044;3.746;2023-07-28T14:10:36;2.78;;;1.60;;
13327;SDS011;6733;51.044;3.746;2023-07-28T14:13:04;4.30;;;1.70;;
13327;SDS011;6733;51.044;3.746;2023-07-28T14:15:30;2.30;;;1.55;;
13327;SDS011;6733;51.044;3.746;2023-07-28T14:17:56;2.00;;;1.73;;
13327;SDS011;6733;51.044;3.746;2023-07-28T14:20:22;2.75;;;1.80;;
13327;SDS011;6733;51.044;3.746;2023-07-28T14:22:48;1.85;;;1.60;;
13327;SDS011;6733;51.044;3.746;2023-07-28T14:25:14;3.38;;;1.80;;
13327;SDS011;6733;51.044;3.746;2023-07-28T14:27:40;2.63;;;1.70;;
13327;SDS011;6733;51.044;3.746;2023-07-28T14:30:07;2.42;;;1.75;;
13327;SDS011;6733;51.044;3.746;2023-07-28T14:32:33;3.42;;;1.73;;
13327;SDS011;6733;51.044;3.746;2023-07-28T14:34:59;1.95;;;1.70;;
13327;SDS011;6733;51.044;3.746;2023-07-28T14:37:26;4.40;;;1.83;;
13327;SDS011;6733;51.044;3.746;2023-07-28T14:39:52;3.05;;;1.58;;
13327;SDS011;6733;51.044;3.746;2023-07-28T14:42:18;3.60;;;1.70;;
13327;SDS011;6733;51.044;3.746;2023-07-28T14:44:45;1.73;;;1.60;;
13327;SDS011;6733;51.044;3.746;2023-07-28T14:47:11;2.00;;;1.65;;
13327;SDS011;6733;51.044;3.746;2023-07-28T14:49:37;2.28;;;1.60;;
13327;SDS011;6733;51.044;3.746;2023-07-28T14:52:04;2.20;;;1.60;;
13327;SDS011;6733;51.044;3.746;2023-07-28T14:54:30;2.22;;;1.70;;
13327;SDS011;6733;51.044;3.746;2023-07-28T14:56:56;1.70;;;1.60;;
13327;SDS011;6733;51.044;3.746;2023-07-28T14:59:23;1.70;;;1.50;;
13327;SDS011;6733;51.044;3.746;2023-07-28T15:01:49;1.80;;;1.50;;
13327;SDS011;6733;51.044;3.746;2023-07-28T15:04:15;3.08;;;1.80;;
13327;SDS011;6733;51.044;3.746;2023-07-28T15:06:41;2.20;;;1.80;;
13327;SDS011;6733;51.044;3.746;2023-07-28T15:09:08;1.88;;;1.70;;
13327;SDS011;6733;51.044;3.746;2023-07-28T15:11:34;2.78;;;1.58;;
13327;SDS011;6733;51.044;3.746;2023-07-28T15:14:00;1.50;;;1.40;;
13327;SDS011;6733;51.044;3.746;2023-07-28T15:16:26;2.80;;;2.05;;
13327;SDS011;6733;51.044;3.746;2023-07-28T15:18:52;1.55;;;1.45;;
13327;SDS011;6733;51.044;3.746;2023-07-28T15:21:19;2.40;;;1.52;;